sensor_id;sensor_type;location;lat;lon;timestamp;P1;durP1;ratioP1;P2;durP2;ratioP2
37431;SDS011;23292;51.300;6.252;2023-12-20T00:02:12;19.13;;;8.85;;
37431;SDS011;23292;51.300;6.252;2023-12-20T00:04:38;22.85;;;9.48;;
37431;SDS011;23292;51.300;6.252;2023-12-20T00:07:05;21.52;;;8.80;;
37431;SDS011;23292;51.300;6.252;2023-12-20T00:09:32;20.58;;;9.00;;
37431;SDS011;23292;51.300;6.252;2023-12-20T00:11:59;21.45;;;8.88;;
37431;SDS011;23292;51.300;6.252;2023-12-20T00:14:25;20.38;;;9.15;;
37431;SDS011;23292;51.300;6.252;2023-12-20T00:16:52;19.67;;;9.25;;
37431;SDS011;23292;51.300;6.252;2023-12-20T00:19:20;25.33;;;9.38;;
37431;SDS011;23292;51.300;6.252;2023-12-20T00:21:46;27.60;;;12.27;;
37431;SDS011;23292;51.300;6.252;2023-12-20T00:24:13;30.27;;;13.30;;
37431;SDS011;23292;51.300;6.252;2023-12-20T00:26:40;30.20;;;12.43;;
37431;SDS011;23292;51.300;6.252;2023-12-20T00:29:07;27.30;;;13.20;;
37431;SDS011;23292;51.300;6.252;2023-12-20T00:31:34;26.48;;;12.82;;
37431;SDS011;23292;51.300;6.252;2023-12-20T00:34:00;34.85;;;15.80;;
37431;SDS011;23292;51.300;6.252;2023-12-20T00:36:27;27.60;;;14.02;;
37431;SDS011;23292;51.300;6.252;2023-12-20T00:38:54;33.20;;;15.18;;
37431;SDS011;23292;51.300;6.252;2023-12-20T00:41:21;31.40;;;16.13;;
37431;SDS011;23292;51.300;6.252;2023-12-20T00:43:47;28.05;;;14.77;;
37431;SDS011;23292;51.300;6.252;2023-12-20T00:46:15;31.95;;;13.77;;
37431;SDS011;23292;51.300;6.252;2023-12-20T00:48:42;28.75;;;13.55;;
37431;SDS011;23292;51.300;6.252;2023-12-20T00:51:11;29.27;;;12.93;;
37431;SDS011;23292;51.300;6.252;2023-12-20T00:53:38;33.80;;;13.32;;
37431;SDS011;23292;51.300;6.252;2023-12-20T00:56:06;24.23;;;11.90;;
37431;SDS011;23292;51.300;6.252;2023-12-20T00:58:32;23.52;;;11.93;;
37431;SDS011;23292;51.300;6.252;2023-12-20T01:00:59;32.55;;;11.05;;
37431;SDS011;23292;51.300;6.252;2023-12-20T01:03:26;23.88;;;10.73;;
37431;SDS011;23292;51.300;6.252;2023-12-20T01:05:53;19.85;;;9.73;;
37431;SDS011;23292;51.300;6.252;2023-12-20T01:08:20;26.92;;;10.95;;
37431;SDS011;23292;51.300;6.252;2023-12-20T01:10:46;19.95;;;9.15;;
37431;SDS011;23292;51.300;6.252;2023-12-20T01:13:13;21.17;;;9.65;;
37431;SDS011;23292;51.300;6.252;2023-12-20T01:15:41;24.90;;;9.57;;
37431;SDS011;23292;51.300;6.252;2023-12-20T01:18:08;21.95;;;9.23;;
37431;SDS011;23292;51.300;6.252;2023-12-20T01:20:35;24.83;;;8.88;;
37431;SDS011;23292;51.300;6.252;2023-12-20T01:23:02;25.83;;;8.02;;
37431;SDS011;23292;51.300;6.252;2023-12-20T01:25:29;21.98;;;7.80;;
37431;SDS011;23292;51.300;6.252;2023-12-20T01:27:55;17.48;;;7.18;;
37431;SDS011;23292;51.300;6.252;2023-12-20T01:30:22;19.67;;;7.15;;
37431;SDS011;23292;51.300;6.252;2023-12-20T01:32:49;30.38;;;6.68;;
37431;SDS011;23292;51.300;6.252;2023-12-20T01:35:16;22.02;;;6.13;;
37431;SDS011;23292;51.300;6.252;2023-12-20T01:37:43;23.60;;;5.95;;
37431;SDS011;23292;51.300;6.252;2023-12-20T01:40:10;19.55;;;5.80;;
37431;SDS011;23292;51.300;6.252;2023-12-20T01:42:37;23.30;;;5.90;;
37431;SDS011;23292;51.300;6.252;2023-12-20T01:45:04;16.58;;;4.93;;
37431;SDS011;23292;51.300;6.252;2023-12-20T01:47:31;22.67;;;4.75;;
37431;SDS011;23292;51.300;6.252;2023-12-20T01:49:58;15.40;;;4.85;;
37431;SDS011;23292;51.300;6.252;2023-12-20T01:52:25;22.05;;;4.53;;
37431;SDS011;23292;51.300;6.252;2023-12-20T01:54:53;18.92;;;4.15;;
37431;SDS011;23292;51.300;6.252;2023-12-20T01:57:22;26.67;;;5.18;;
37431;SDS011;23292;51.300;6.252;2023-12-20T01:59:49;26.48;;;5.50;;
37431;SDS011;23292;51.300;6.252;2023-12-20T02:02:16;17.90;;;4.00;;
37431;SDS011;23292;51.300;6.252;2023-12-20T02:04:44;20.98;;;3.72;;
37431;SDS011;23292;51.300;6.252;2023-12-20T02:07:12;15.18;;;4.00;;
37431;SDS011;23292;51.300;6.252;2023-12-20T02:09:39;19.42;;;4.47;;
37431;SDS011;23292;51.300;6.252;2023-12-20T02:12:06;16.80;;;3.70;;
37431;SDS011;23292;51.300;6.252;2023-12-20T02:14:34;21.95;;;4.00;;
37431;SDS011;23292;51.300;6.252;2023-12-20T02:17:01;15.00;;;3.22;;
37431;SDS011;23292;51.300;6.252;2023-12-20T02:19:28;20.50;;;3.53;;
37431;SDS011;23292;51.300;6.252;2023-12-20T02:22:04;22.48;;;3.70;;
37431;SDS011;23292;51.300;6.252;2023-12-20T02:24:37;18.85;;;3.40;;
37431;SDS011;23292;51.300;6.252;2023-12-20T02:27:05;14.57;;;3.17;;
37431;SDS011;23292;51.300;6.252;2023-12-20T02:29:33;15.50;;;3.28;;
37431;SDS011;23292;51.300;6.252;2023-12-20T02:32:01;17.88;;;3.72;;
37431;SDS011;23292;51.300;6.252;2023-12-20T02:34:29;24.80;;;4.22;;
37431;SDS011;23292;51.300;6.252;2023-12-20T02:36:56;20.52;;;3.35;;
37431;SDS011;23292;51.300;6.252;2023-12-20T02:39:22;20.95;;;2.85;;
37431;SDS011;23292;51.300;6.252;2023-12-20T02:41:49;20.52;;;3.97;;
37431;SDS011;23292;51.300;6.252;2023-12-20T02:44:16;20.67;;;3.63;;
37431;SDS011;23292;51.300;6.252;2023-12-20T02:46:43;18.90;;;3.10;;
37431;SDS011;23292;51.300;6.252;2023-12-20T02:49:09;20.45;;;3.50;;
37431;SDS011;23292;51.300;6.252;2023-12-20T02:51:36;17.15;;;4.75;;
37431;SDS011;23292;51.300;6.252;2023-12-20T02:54:07;25.13;;;4.53;;
37431;SDS011;23292;51.300;6.252;2023-12-20T02:56:33;15.15;;;3.47;;
37431;SDS011;23292;51.300;6.252;2023-12-20T02:59:01;23.38;;;3.97;;
37431;SDS011;23292;51.300;6.252;2023-12-20T03:01:28;20.05;;;3.83;;
37431;SDS011;23292;51.300;6.252;2023-12-20T03:03:56;27.10;;;4.30;;
37431;SDS011;23292;51.300;6.252;2023-12-20T03:06:23;17.80;;;3.22;;
37431;SDS011;23292;51.300;6.252;2023-12-20T03:08:50;13.05;;;3.85;;
37431;SDS011;23292;51.300;6.252;2023-12-20T03:11:17;23.38;;;4.20;;
37431;SDS011;23292;51.300;6.252;2023-12-20T03:13:44;22.00;;;3.33;;
37431;SDS011;23292;51.300;6.252;2023-12-20T03:16:11;17.10;;;3.92;;
37431;SDS011;23292;51.300;6.252;2023-12-20T03:18:39;14.48;;;3.45;;
37431;SDS011;23292;51.300;6.252;2023-12-20T03:21:06;24.55;;;3.60;;
37431;SDS011;23292;51.300;6.252;2023-12-20T03:23:32;22.85;;;4.35;;
37431;SDS011;23292;51.300;6.252;2023-12-20T03:25:59;26.67;;;4.22;;
37431;SDS011;23292;51.300;6.252;2023-12-20T03:28:27;17.77;;;4.45;;
37431;SDS011;23292;51.300;6.252;2023-12-20T03:30:54;27.10;;;3.78;;
37431;SDS011;23292;51.300;6.252;2023-12-20T03:33:21;15.68;;;3.60;;
37431;SDS011;23292;51.300;6.252;2023-12-20T03:35:47;20.08;;;4.68;;
37431;SDS011;23292;51.300;6.252;2023-12-20T03:38:14;23.45;;;4.25;;
37431;SDS011;23292;51.300;6.252;2023-12-20T03:40:41;19.20;;;4.40;;
37431;SDS011;23292;51.300;6.252;2023-12-20T03:43:08;20.75;;;4.32;;
37431;SDS011;23292;51.300;6.252;2023-12-20T03:45:35;25.27;;;5.63;;
37431;SDS011;23292;51.300;6.252;2023-12-20T03:48:02;27.70;;;5.25;;
37431;SDS011;23292;51.300;6.252;2023-12-20T03:50:29;29.08;;;6.32;;
37431;SDS011;23292;51.300;6.252;2023-12-20T03:52:56;21.45;;;5.13;;
37431;SDS011;23292;51.300;6.252;2023-12-20T03:55:23;19.02;;;5.35;;
37431;SDS011;23292;51.300;6.252;2023-12-20T03:57:50;26.48;;;5.25;;
37431;SDS011;23292;51.300;6.252;2023-12-20T04:00:16;26.55;;;5.30;;
37431;SDS011;23292;51.300;6.252;2023-12-20T04:02:43;22.95;;;6.05;;
37431;SDS011;23292;51.300;6.252;2023-12-20T04:05:10;16.75;;;5.53;;
37431;SDS011;23292;51.300;6.252;2023-12-20T04:07:37;22.77;;;6.10;;
37431;SDS011;23292;51.300;6.252;2023-12-20T04:10:04;21.20;;;6.05;;
37431;SDS011;23292;51.300;6.252;2023-12-20T04:12:32;35.42;;;7.43;;
37431;SDS011;23292;51.300;6.252;2023-12-20T04:14:59;24.58;;;6.50;;
37431;SDS011;23292;51.300;6.252;2023-12-20T04:17:26;23.20;;;6.43;;
37431;SDS011;23292;51.300;6.252;2023-12-20T04:19:52;24.95;;;6.60;;
37431;SDS011;23292;51.300;6.252;2023-12-20T04:22:19;19.42;;;6.45;;
37431;SDS011;23292;51.300;6.252;2023-12-20T04:24:46;20.15;;;6.70;;
37431;SDS011;23292;51.300;6.252;2023-12-20T04:27:13;26.30;;;6.63;;
37431;SDS011;23292;51.300;6.252;2023-12-20T04:29:40;28.67;;;7.32;;
37431;SDS011;23292;51.300;6.252;2023-12-20T04:32:06;26.00;;;7.53;;
37431;SDS011;23292;51.300;6.252;2023-12-20T04:34:33;24.67;;;6.60;;
37431;SDS011;23292;51.300;6.252;2023-12-20T04:37:00;22.73;;;6.78;;
37431;SDS011;23292;51.300;6.252;2023-12-20T04:39:28;24.20;;;6.93;;
37431;SDS011;23292;51.300;6.252;2023-12-20T04:41:55;31.88;;;7.18;;
37431;SDS011;23292;51.300;6.252;2023-12-20T04:44:22;23.83;;;6.72;;
37431;SDS011;23292;51.300;6.252;2023-12-20T04:46:48;20.30;;;7.40;;
37431;SDS011;23292;51.300;6.252;2023-12-20T04:49:15;28.55;;;7.68;;
37431;SDS011;23292;51.300;6.252;2023-12-20T04:51:43;24.17;;;6.80;;
37431;SDS011;23292;51.300;6.252;2023-12-20T04:54:10;26.80;;;6.88;;
37431;SDS011;23292;51.300;6.252;2023-12-20T04:56:36;28.98;;;7.45;;
37431;SDS011;23292;51.300;6.252;2023-12-20T04:59:03;40.42;;;7.43;;
37431;SDS011;23292;51.300;6.252;2023-12-20T05:01:30;28.42;;;7.00;;
37431;SDS011;23292;51.300;6.252;2023-12-20T05:03:56;20.27;;;6.03;;
37431;SDS011;23292;51.300;6.252;2023-12-20T05:06:23;24.60;;;7.47;;
37431;SDS011;23292;51.300;6.252;2023-12-20T05:08:51;24.85;;;6.75;;
37431;SDS011;23292;51.300;6.252;2023-12-20T05:11:17;28.23;;;6.78;;
37431;SDS011;23292;51.300;6.252;2023-12-20T05:13:44;25.13;;;6.15;;
37431;SDS011;23292;51.300;6.252;2023-12-20T05:18:47;20.02;;;5.88;;
37431;SDS011;23292;51.300;6.252;2023-12-20T05:21:16;25.90;;;5.93;;
37431;SDS011;23292;51.300;6.252;2023-12-20T05:23:43;25.10;;;5.80;;
37431;SDS011;23292;51.300;6.252;2023-12-20T05:26:10;22.58;;;7.38;;
37431;SDS011;23292;51.300;6.252;2023-12-20T05:28:36;25.13;;;7.07;;
37431;SDS011;23292;51.300;6.252;2023-12-20T05:31:03;33.95;;;6.88;;
37431;SDS011;23292;51.300;6.252;2023-12-20T05:33:30;29.48;;;6.80;;
37431;SDS011;23292;51.300;6.252;2023-12-20T05:35:57;25.75;;;7.20;;
37431;SDS011;23292;51.300;6.252;2023-12-20T05:38:24;22.77;;;6.68;;
37431;SDS011;23292;51.300;6.252;2023-12-20T05:40:51;26.48;;;5.28;;
37431;SDS011;23292;51.300;6.252;2023-12-20T05:43:18;31.00;;;8.20;;
37431;SDS011;23292;51.300;6.252;2023-12-20T05:45:46;30.60;;;7.15;;
37431;SDS011;23292;51.300;6.252;2023-12-20T05:48:13;32.67;;;6.53;;
37431;SDS011;23292;51.300;6.252;2023-12-20T05:50:40;21.23;;;5.15;;
37431;SDS011;23292;51.300;6.252;2023-12-20T05:53:06;23.80;;;6.53;;
37431;SDS011;23292;51.300;6.252;2023-12-20T05:55:34;20.38;;;4.47;;
37431;SDS011;23292;51.300;6.252;2023-12-20T05:58:01;22.23;;;5.57;;
37431;SDS011;23292;51.300;6.252;2023-12-20T06:00:29;20.42;;;5.13;;
37431;SDS011;23292;51.300;6.252;2023-12-20T06:02:56;19.52;;;5.13;;
37431;SDS011;23292;51.300;6.252;2023-12-20T06:05:22;24.38;;;5.45;;
37431;SDS011;23292;51.300;6.252;2023-12-20T06:07:49;28.00;;;4.90;;
37431;SDS011;23292;51.300;6.252;2023-12-20T06:10:17;26.15;;;5.28;;
37431;SDS011;23292;51.300;6.252;2023-12-20T06:12:44;20.40;;;4.88;;
37431;SDS011;23292;51.300;6.252;2023-12-20T06:15:13;25.42;;;5.60;;
37431;SDS011;23292;51.300;6.252;2023-12-20T06:17:40;26.85;;;5.57;;
37431;SDS011;23292;51.300;6.252;2023-12-20T06:20:07;21.23;;;5.70;;
37431;SDS011;23292;51.300;6.252;2023-12-20T06:22:35;26.75;;;5.45;;
37431;SDS011;23292;51.300;6.252;2023-12-20T06:25:04;24.60;;;5.82;;
37431;SDS011;23292;51.300;6.252;2023-12-20T06:27:31;27.20;;;7.57;;
37431;SDS011;23292;51.300;6.252;2023-12-20T06:29:58;21.50;;;4.70;;
37431;SDS011;23292;51.300;6.252;2023-12-20T06:32:25;24.20;;;5.22;;
37431;SDS011;23292;51.300;6.252;2023-12-20T06:34:52;20.92;;;6.30;;
37431;SDS011;23292;51.300;6.252;2023-12-20T06:37:19;21.08;;;5.30;;
37431;SDS011;23292;51.300;6.252;2023-12-20T06:39:46;25.85;;;5.60;;
37431;SDS011;23292;51.300;6.252;2023-12-20T06:42:13;24.63;;;5.28;;
37431;SDS011;23292;51.300;6.252;2023-12-20T06:44:39;30.73;;;5.95;;
37431;SDS011;23292;51.300;6.252;2023-12-20T06:47:07;29.30;;;5.55;;
37431;SDS011;23292;51.300;6.252;2023-12-20T06:49:34;22.70;;;6.40;;
37431;SDS011;23292;51.300;6.252;2023-12-20T06:52:01;24.83;;;4.85;;
37431;SDS011;23292;51.300;6.252;2023-12-20T06:54:28;22.25;;;6.00;;
37431;SDS011;23292;51.300;6.252;2023-12-20T06:56:55;32.10;;;6.15;;
37431;SDS011;23292;51.300;6.252;2023-12-20T06:59:21;30.67;;;5.53;;
37431;SDS011;23292;51.300;6.252;2023-12-20T07:01:48;20.98;;;4.95;;
37431;SDS011;23292;51.300;6.252;2023-12-20T07:04:15;19.42;;;6.28;;
37431;SDS011;23292;51.300;6.252;2023-12-20T07:06:47;24.98;;;6.10;;
37431;SDS011;23292;51.300;6.252;2023-12-20T07:09:14;23.00;;;4.78;;
37431;SDS011;23292;51.300;6.252;2023-12-20T07:11:41;27.52;;;5.90;;
37431;SDS011;23292;51.300;6.252;2023-12-20T07:14:08;28.85;;;6.07;;
37431;SDS011;23292;51.300;6.252;2023-12-20T07:16:35;30.52;;;6.55;;
37431;SDS011;23292;51.300;6.252;2023-12-20T07:19:02;23.38;;;5.53;;
37431;SDS011;23292;51.300;6.252;2023-12-20T07:21:29;24.15;;;6.07;;
37431;SDS011;23292;51.300;6.252;2023-12-20T07:23:56;17.80;;;5.40;;
37431;SDS011;23292;51.300;6.252;2023-12-20T07:26:23;19.20;;;5.13;;
37431;SDS011;23292;51.300;6.252;2023-12-20T07:28:49;20.80;;;5.20;;
37431;SDS011;23292;51.300;6.252;2023-12-20T07:31:16;29.35;;;7.32;;
37431;SDS011;23292;51.300;6.252;2023-12-20T07:33:43;31.23;;;6.22;;
37431;SDS011;23292;51.300;6.252;2023-12-20T07:36:11;22.10;;;5.03;;
37431;SDS011;23292;51.300;6.252;2023-12-20T07:38:39;25.35;;;5.13;;
37431;SDS011;23292;51.300;6.252;2023-12-20T07:41:09;27.80;;;5.10;;
37431;SDS011;23292;51.300;6.252;2023-12-20T07:43:36;28.67;;;5.45;;
37431;SDS011;23292;51.300;6.252;2023-12-20T07:46:07;19.77;;;5.43;;
37431;SDS011;23292;51.300;6.252;2023-12-20T07:48:34;18.63;;;4.60;;
37431;SDS011;23292;51.300;6.252;2023-12-20T07:51:02;21.45;;;5.30;;
37431;SDS011;23292;51.300;6.252;2023-12-20T07:53:30;21.27;;;4.75;;
37431;SDS011;23292;51.300;6.252;2023-12-20T07:55:57;29.00;;;5.03;;
37431;SDS011;23292;51.300;6.252;2023-12-20T07:58:23;26.95;;;4.90;;
37431;SDS011;23292;51.300;6.252;2023-12-20T08:01:06;19.60;;;5.30;;
37431;SDS011;23292;51.300;6.252;2023-12-20T08:03:33;16.13;;;5.00;;
37431;SDS011;23292;51.300;6.252;2023-12-20T08:06:00;18.65;;;4.55;;
37431;SDS011;23292;51.300;6.252;2023-12-20T08:08:28;27.27;;;5.43;;
37431;SDS011;23292;51.300;6.252;2023-12-20T08:10:55;27.13;;;4.88;;
37431;SDS011;23292;51.300;6.252;2023-12-20T08:13:23;20.38;;;5.93;;
37431;SDS011;23292;51.300;6.252;2023-12-20T08:15:52;22.17;;;5.28;;
37431;SDS011;23292;51.300;6.252;2023-12-20T08:18:19;24.58;;;4.65;;
37431;SDS011;23292;51.300;6.252;2023-12-20T08:20:46;20.90;;;5.25;;
37431;SDS011;23292;51.300;6.252;2023-12-20T08:23:14;19.98;;;4.82;;
37431;SDS011;23292;51.300;6.252;2023-12-20T08:25:41;26.40;;;4.88;;
37431;SDS011;23292;51.300;6.252;2023-12-20T08:28:08;22.38;;;5.60;;
37431;SDS011;23292;51.300;6.252;2023-12-20T08:30:35;27.77;;;6.28;;
37431;SDS011;23292;51.300;6.252;2023-12-20T08:33:02;25.10;;;4.43;;
37431;SDS011;23292;51.300;6.252;2023-12-20T08:35:29;34.85;;;5.60;;
37431;SDS011;23292;51.300;6.252;2023-12-20T08:37:56;29.88;;;5.05;;
37431;SDS011;23292;51.300;6.252;2023-12-20T08:40:23;23.20;;;4.97;;
37431;SDS011;23292;51.300;6.252;2023-12-20T08:42:50;19.25;;;3.78;;
37431;SDS011;23292;51.300;6.252;2023-12-20T08:45:16;21.35;;;4.35;;
37431;SDS011;23292;51.300;6.252;2023-12-20T08:47:43;25.58;;;5.28;;
37431;SDS011;23292;51.300;6.252;2023-12-20T08:50:12;23.60;;;4.03;;
37431;SDS011;23292;51.300;6.252;2023-12-20T08:52:39;18.88;;;4.53;;
37431;SDS011;23292;51.300;6.252;2023-12-20T08:55:05;19.00;;;4.68;;
37431;SDS011;23292;51.300;6.252;2023-12-20T08:57:33;22.17;;;4.35;;
37431;SDS011;23292;51.300;6.252;2023-12-20T09:00:00;18.92;;;4.60;;
37431;SDS011;23292;51.300;6.252;2023-12-20T09:02:27;22.42;;;4.18;;
37431;SDS011;23292;51.300;6.252;2023-12-20T09:04:55;21.45;;;4.25;;
37431;SDS011;23292;51.300;6.252;2023-12-20T09:07:23;17.45;;;4.20;;
37431;SDS011;23292;51.300;6.252;2023-12-20T09:09:56;19.17;;;4.20;;
37431;SDS011;23292;51.300;6.252;2023-12-20T09:12:22;22.42;;;3.97;;
37431;SDS011;23292;51.300;6.252;2023-12-20T09:14:49;19.73;;;3.75;;
37431;SDS011;23292;51.300;6.252;2023-12-20T09:17:17;28.63;;;4.53;;
37431;SDS011;23292;51.300;6.252;2023-12-20T09:19:44;20.15;;;4.00;;
37431;SDS011;23292;51.300;6.252;2023-12-20T09:22:12;19.60;;;4.30;;
37431;SDS011;23292;51.300;6.252;2023-12-20T09:24:39;23.00;;;4.57;;
37431;SDS011;23292;51.300;6.252;2023-12-20T09:27:06;23.95;;;4.38;;
37431;SDS011;23292;51.300;6.252;2023-12-20T09:29:33;20.45;;;3.88;;
37431;SDS011;23292;51.300;6.252;2023-12-20T09:31:59;25.73;;;4.25;;
37431;SDS011;23292;51.300;6.252;2023-12-20T09:34:26;21.95;;;3.70;;
37431;SDS011;23292;51.300;6.252;2023-12-20T09:36:54;18.85;;;4.20;;
37431;SDS011;23292;51.300;6.252;2023-12-20T09:39:20;16.77;;;3.75;;
37431;SDS011;23292;51.300;6.252;2023-12-20T09:42:00;22.35;;;3.97;;
37431;SDS011;23292;51.300;6.252;2023-12-20T09:44:28;20.35;;;4.10;;
37431;SDS011;23292;51.300;6.252;2023-12-20T09:46:56;21.40;;;3.90;;
37431;SDS011;23292;51.300;6.252;2023-12-20T09:49:23;20.00;;;4.40;;
37431;SDS011;23292;51.300;6.252;2023-12-20T09:51:53;18.17;;;3.80;;
37431;SDS011;23292;51.300;6.252;2023-12-20T09:54:21;15.43;;;3.60;;
37431;SDS011;23292;51.300;6.252;2023-12-20T09:56:49;21.52;;;4.07;;
37431;SDS011;23292;51.300;6.252;2023-12-20T09:59:15;18.98;;;4.15;;
37431;SDS011;23292;51.300;6.252;2023-12-20T10:01:43;20.02;;;3.75;;
37431;SDS011;23292;51.300;6.252;2023-12-20T10:04:11;18.70;;;4.05;;
37431;SDS011;23292;51.300;6.252;2023-12-20T10:06:55;20.63;;;4.13;;
37431;SDS011;23292;51.300;6.252;2023-12-20T10:09:23;19.80;;;4.28;;
37431;SDS011;23292;51.300;6.252;2023-12-20T10:11:53;16.08;;;3.75;;
37431;SDS011;23292;51.300;6.252;2023-12-20T10:14:21;16.77;;;3.65;;
37431;SDS011;23292;51.300;6.252;2023-12-20T10:16:49;14.68;;;3.33;;
37431;SDS011;23292;51.300;6.252;2023-12-20T10:19:16;21.40;;;4.90;;
37431;SDS011;23292;51.300;6.252;2023-12-20T10:21:44;19.20;;;4.00;;
37431;SDS011;23292;51.300;6.252;2023-12-20T10:24:16;19.58;;;4.40;;
37431;SDS011;23292;51.300;6.252;2023-12-20T10:26:43;20.80;;;4.57;;
37431;SDS011;23292;51.300;6.252;2023-12-20T10:29:10;23.48;;;5.68;;
37431;SDS011;23292;51.300;6.252;2023-12-20T10:31:37;21.02;;;4.47;;
37431;SDS011;23292;51.300;6.252;2023-12-20T10:34:08;26.40;;;5.50;;
37431;SDS011;23292;51.300;6.252;2023-12-20T10:36:35;19.67;;;4.25;;
37431;SDS011;23292;51.300;6.252;2023-12-20T10:39:03;16.08;;;4.22;;
37431;SDS011;23292;51.300;6.252;2023-12-20T10:41:33;17.65;;;4.72;;
37431;SDS011;23292;51.300;6.252;2023-12-20T10:44:07;20.67;;;4.53;;
37431;SDS011;23292;51.300;6.252;2023-12-20T10:46:36;18.58;;;3.88;;
37431;SDS011;23292;51.300;6.252;2023-12-20T10:49:05;15.95;;;3.80;;
37431;SDS011;23292;51.300;6.252;2023-12-20T10:51:34;17.10;;;3.80;;
37431;SDS011;23292;51.300;6.252;2023-12-20T10:54:03;15.75;;;3.67;;
37431;SDS011;23292;51.300;6.252;2023-12-20T10:56:32;17.60;;;4.75;;
37431;SDS011;23292;51.300;6.252;2023-12-20T10:58:59;20.58;;;4.60;;
37431;SDS011;23292;51.300;6.252;2023-12-20T11:01:31;18.25;;;3.95;;
37431;SDS011;23292;51.300;6.252;2023-12-20T11:03:59;15.43;;;3.75;;
37431;SDS011;23292;51.300;6.252;2023-12-20T11:06:29;16.90;;;4.22;;
37431;SDS011;23292;51.300;6.252;2023-12-20T11:11:54;26.85;;;4.93;;
37431;SDS011;23292;51.300;6.252;2023-12-20T11:14:23;21.08;;;4.03;;
37431;SDS011;23292;51.300;6.252;2023-12-20T11:17:09;19.73;;;4.63;;
37431;SDS011;23292;51.300;6.252;2023-12-20T11:22:25;20.85;;;3.80;;
37431;SDS011;23292;51.300;6.252;2023-12-20T11:24:54;17.85;;;4.50;;
37431;SDS011;23292;51.300;6.252;2023-12-20T11:27:28;23.83;;;4.15;;
37431;SDS011;23292;51.300;6.252;2023-12-20T11:29:57;21.30;;;4.85;;
37431;SDS011;23292;51.300;6.252;2023-12-20T11:34:53;21.65;;;4.25;;
37431;SDS011;23292;51.300;6.252;2023-12-20T11:37:20;20.30;;;5.03;;
37431;SDS011;23292;51.300;6.252;2023-12-20T11:39:55;18.88;;;3.95;;
37431;SDS011;23292;51.300;6.252;2023-12-20T11:42:23;19.33;;;4.32;;
37431;SDS011;23292;51.300;6.252;2023-12-20T11:44:50;13.80;;;4.00;;
37431;SDS011;23292;51.300;6.252;2023-12-20T11:47:17;16.30;;;4.03;;
37431;SDS011;23292;51.300;6.252;2023-12-20T11:49:48;15.40;;;4.38;;
37431;SDS011;23292;51.300;6.252;2023-12-20T11:52:15;24.30;;;4.72;;
37431;SDS011;23292;51.300;6.252;2023-12-20T11:54:42;22.73;;;4.50;;
37431;SDS011;23292;51.300;6.252;2023-12-20T11:57:09;21.98;;;4.75;;
37431;SDS011;23292;51.300;6.252;2023-12-20T11:59:36;18.30;;;4.13;;
37431;SDS011;23292;51.300;6.252;2023-12-20T12:02:03;17.73;;;4.13;;
37431;SDS011;23292;51.300;6.252;2023-12-20T12:04:30;22.40;;;4.07;;
37431;SDS011;23292;51.300;6.252;2023-12-20T12:06:57;18.17;;;5.10;;
37431;SDS011;23292;51.300;6.252;2023-12-20T12:09:24;17.48;;;4.30;;
37431;SDS011;23292;51.300;6.252;2023-12-20T12:11:51;16.90;;;4.05;;
37431;SDS011;23292;51.300;6.252;2023-12-20T12:14:18;15.88;;;3.95;;
37431;SDS011;23292;51.300;6.252;2023-12-20T12:16:46;20.77;;;5.32;;
37431;SDS011;23292;51.300;6.252;2023-12-20T12:19:23;16.73;;;4.15;;
37431;SDS011;23292;51.300;6.252;2023-12-20T12:22:04;25.83;;;5.18;;
37431;SDS011;23292;51.300;6.252;2023-12-20T12:24:41;25.77;;;5.40;;
37431;SDS011;23292;51.300;6.252;2023-12-20T12:27:08;21.88;;;4.43;;
37431;SDS011;23292;51.300;6.252;2023-12-20T12:29:35;17.05;;;4.07;;
37431;SDS011;23292;51.300;6.252;2023-12-20T12:32:06;16.38;;;5.05;;
37431;SDS011;23292;51.300;6.252;2023-12-20T12:34:34;17.92;;;4.47;;
37431;SDS011;23292;51.300;6.252;2023-12-20T12:37:03;16.83;;;5.25;;
37431;SDS011;23292;51.300;6.252;2023-12-20T12:39:30;26.27;;;4.80;;
37431;SDS011;23292;51.300;6.252;2023-12-20T12:41:57;18.48;;;4.72;;
37431;SDS011;23292;51.300;6.252;2023-12-20T12:44:24;18.63;;;4.43;;
37431;SDS011;23292;51.300;6.252;2023-12-20T12:46:51;22.60;;;6.18;;
37431;SDS011;23292;51.300;6.252;2023-12-20T12:49:20;20.08;;;4.95;;
37431;SDS011;23292;51.300;6.252;2023-12-20T12:51:50;22.52;;;4.57;;
37431;SDS011;23292;51.300;6.252;2023-12-20T12:54:18;26.15;;;5.63;;
37431;SDS011;23292;51.300;6.252;2023-12-20T12:56:45;17.73;;;5.47;;
37431;SDS011;23292;51.300;6.252;2023-12-20T12:59:14;18.85;;;5.50;;
37431;SDS011;23292;51.300;6.252;2023-12-20T13:01:41;17.30;;;5.40;;
37431;SDS011;23292;51.300;6.252;2023-12-20T13:04:08;19.05;;;5.13;;
37431;SDS011;23292;51.300;6.252;2023-12-20T13:06:38;17.85;;;5.90;;
37431;SDS011;23292;51.300;6.252;2023-12-20T13:09:05;23.77;;;6.03;;
37431;SDS011;23292;51.300;6.252;2023-12-20T13:11:32;23.75;;;6.47;;
37431;SDS011;23292;51.300;6.252;2023-12-20T13:14:01;22.10;;;5.82;;
37431;SDS011;23292;51.300;6.252;2023-12-20T13:16:30;28.95;;;7.55;;
37431;SDS011;23292;51.300;6.252;2023-12-20T13:18:57;28.70;;;7.35;;
37431;SDS011;23292;51.300;6.252;2023-12-20T13:21:27;25.60;;;7.35;;
37431;SDS011;23292;51.300;6.252;2023-12-20T13:23:54;24.27;;;7.15;;
37431;SDS011;23292;51.300;6.252;2023-12-20T13:26:20;20.85;;;7.45;;
37431;SDS011;23292;51.300;6.252;2023-12-20T13:28:47;24.48;;;6.53;;
37431;SDS011;23292;51.300;6.252;2023-12-20T13:31:14;23.13;;;6.25;;
37431;SDS011;23292;51.300;6.252;2023-12-20T13:33:42;22.73;;;6.00;;
37431;SDS011;23292;51.300;6.252;2023-12-20T13:36:09;24.98;;;7.38;;
37431;SDS011;23292;51.300;6.252;2023-12-20T13:38:36;20.25;;;6.63;;
37431;SDS011;23292;51.300;6.252;2023-12-20T13:41:03;16.90;;;6.13;;
37431;SDS011;23292;51.300;6.252;2023-12-20T13:43:34;24.23;;;6.55;;
37431;SDS011;23292;51.300;6.252;2023-12-20T13:46:02;19.80;;;5.85;;
37431;SDS011;23292;51.300;6.252;2023-12-20T13:48:29;20.85;;;5.45;;
37431;SDS011;23292;51.300;6.252;2023-12-20T13:50:56;22.73;;;5.25;;
37431;SDS011;23292;51.300;6.252;2023-12-20T13:53:24;19.52;;;5.22;;
37431;SDS011;23292;51.300;6.252;2023-12-20T13:55:53;21.88;;;5.18;;
37431;SDS011;23292;51.300;6.252;2023-12-20T13:58:20;24.40;;;5.80;;
37431;SDS011;23292;51.300;6.252;2023-12-20T14:00:47;19.77;;;5.53;;
37431;SDS011;23292;51.300;6.252;2023-12-20T14:03:14;20.70;;;5.00;;
37431;SDS011;23292;51.300;6.252;2023-12-20T14:05:43;17.85;;;4.90;;
37431;SDS011;23292;51.300;6.252;2023-12-20T14:08:10;22.33;;;5.07;;
37431;SDS011;23292;51.300;6.252;2023-12-20T14:10:38;21.80;;;5.47;;
37431;SDS011;23292;51.300;6.252;2023-12-20T14:13:05;28.15;;;5.63;;
37431;SDS011;23292;51.300;6.252;2023-12-20T14:15:32;22.30;;;5.60;;
37431;SDS011;23292;51.300;6.252;2023-12-20T14:18:04;16.23;;;6.00;;
37431;SDS011;23292;51.300;6.252;2023-12-20T14:20:33;21.73;;;5.38;;
37431;SDS011;23292;51.300;6.252;2023-12-20T14:23:03;21.58;;;5.05;;
37431;SDS011;23292;51.300;6.252;2023-12-20T14:25:30;18.10;;;5.45;;
37431;SDS011;23292;51.300;6.252;2023-12-20T14:28:11;21.83;;;4.78;;
37431;SDS011;23292;51.300;6.252;2023-12-20T14:30:40;25.33;;;5.75;;
37431;SDS011;23292;51.300;6.252;2023-12-20T14:33:08;16.88;;;4.95;;
37431;SDS011;23292;51.300;6.252;2023-12-20T14:35:35;17.88;;;5.53;;
37431;SDS011;23292;51.300;6.252;2023-12-20T14:38:02;21.75;;;5.72;;
37431;SDS011;23292;51.300;6.252;2023-12-20T14:40:30;23.15;;;6.05;;
37431;SDS011;23292;51.300;6.252;2023-12-20T14:42:57;20.60;;;5.40;;
37431;SDS011;23292;51.300;6.252;2023-12-20T14:45:24;26.05;;;6.45;;
37431;SDS011;23292;51.300;6.252;2023-12-20T14:47:51;19.35;;;6.57;;